Time;durP1;ratioP1;P1;durP2;ratioP2;P2;SDS_P1;SDS_P2;PMS_P1;PMS_P2;Temp;Humidity;BMP_temperature;BMP_pressure;BME280_temperature;BME280_humidity;BME280_pressure;Samples;Min_cycle;Max_cycle;Signal;HPM_P1;HPM_P2
2022/09/08 00:00:45;;;;;;;12.18;10.90;;;16.60;99.90;;;;;;4999963;28;20045;-49
2022/09/08 00:03:14;;;;;;;11.55;10.45;;;16.60;99.90;;;;;;5001022;28;20025;-46
2022/09/08 00:06:07;;;;;;;11.85;10.75;;;16.50;99.90;;;;;;4999470;28;20026;-46
2022/09/08 00:08:34;;;;;;;11.50;10.32;;;16.50;99.90;;;;;;4992393;28;20049;-47
2022/09/08 00:11:04;;;;;;;12.65;11.25;;;16.50;99.90;;;;;;5000280;28;20085;-48
2022/09/08 00:13:32;;;;;;;10.63;9.52;;;16.40;99.90;;;;;;5001100;28;20109;-50
2022/09/08 00:15:57;;;;;;;12.30;11.10;;;16.40;99.90;;;;;;4998876;28;20026;-47
2022/09/08 00:18:23;;;;;;;11.65;10.57;;;16.40;99.90;;;;;;5001221;28;20084;-48
2022/09/08 00:20:50;;;;;;;13.05;11.75;;;16.40;99.90;;;;;;4998499;28;20396;-46
2022/09/08 00:23:15;;;;;;;12.52;11.35;;;16.30;99.90;;;;;;4999520;28;20057;-45
2022/09/08 00:25:41;;;;;;;13.93;10.82;;;16.30;99.90;;;;;;5001173;28;20069;-47
2022/09/08 00:28:06;;;;;;;11.43;10.40;;;16.30;99.90;;;;;;5022257;23;20104;-51
2022/09/08 00:30:33;;;;;;;12.20;11.10;;;16.20;99.90;;;;;;5002055;28;20026;-53
2022/09/08 00:32:59;;;;;;;11.35;10.35;;;16.20;99.90;;;;;;4999577;28;20089;-51
2022/09/08 00:35:25;;;;;;;11.73;10.60;;;16.20;99.90;;;;;;4999805;28;20482;-50
2022/09/08 00:37:53;;;;;;;11.88;10.70;;;16.20;99.90;;;;;;4989847;28;20023;-51
2022/09/08 00:40:22;;;;;;;13.50;12.23;;;16.10;99.90;;;;;;4980210;28;20451;-50
2022/09/08 00:42:57;;;;;;;11.82;10.73;;;16.10;99.90;;;;;;4983748;28;20026;-54
2022/09/08 00:45:24;;;;;;;15.63;11.93;;;16.00;99.90;;;;;;4979887;28;20023;-50
2022/09/08 00:47:59;;;;;;;11.73;10.63;;;16.00;99.90;;;;;;4987183;28;20094;-50
2022/09/08 00:50:27;;;;;;;13.77;12.40;;;16.00;99.90;;;;;;4986173;28;20117;-51
2022/09/08 00:53:00;;;;;;;14.75;13.02;;;15.90;99.90;;;;;;4989190;28;20034;-52
2022/09/08 00:55:27;;;;;;;13.13;11.80;;;15.90;99.90;;;;;;4987652;28;20149;-50
2022/09/08 00:57:52;;;;;;;11.38;10.18;;;15.90;99.90;;;;;;4981780;28;20181;-50
2022/09/08 01:00:19;;;;;;;10.65;9.63;;;15.80;99.90;;;;;;4988031;28;20557;-51
2022/09/08 01:02:46;;;;;;;13.77;11.27;;;15.80;99.90;;;;;;4980393;28;20053;-52
2022/09/08 01:05:15;;;;;;;11.85;10.65;;;15.80;99.90;;;;;;4971051;28;20031;-50
2022/09/08 01:13:27;;;;;;;12.05;10.95;;;15.70;99.90;;;;;;4975937;28;20585;-51
2022/09/08 01:15:55;;;;;;;12.68;11.48;;;15.70;99.90;;;;;;4987995;28;20060;-50
2022/09/08 01:18:21;;;;;;;12.48;11.25;;;15.60;99.90;;;;;;4973673;28;20106;-50
2022/09/08 01:20:50;;;;;;;13.32;12.02;;;15.60;99.90;;;;;;4987905;28;20113;-51
2022/09/08 01:23:51;;;;;;;13.07;11.25;;;15.60;99.90;;;;;;4971181;28;20387;-54
2022/09/08 01:26:41;;;;;;;12.68;11.57;;;15.50;99.90;;;;;;4965919;28;20050;-51
2022/09/08 01:29:08;;;;;;;14.35;12.75;;;15.50;99.90;;;;;;4991055;28;20057;-50
2022/09/08 01:31:41;;;;;;;14.38;12.98;;;15.40;99.90;;;;;;4986419;28;20752;-50
2022/09/08 01:34:07;;;;;;;13.32;12.02;;;15.40;99.90;;;;;;4983880;28;20069;-53
2022/09/08 01:36:33;;;;;;;13.18;11.90;;;15.40;99.90;;;;;;4985340;28;20486;-51
2022/09/08 01:38:59;;;;;;;13.88;12.48;;;15.30;99.90;;;;;;4980939;28;20440;-51
2022/09/08 01:41:24;;;;;;;12.60;10.68;;;15.40;99.90;;;;;;4991465;28;20019;-50
2022/09/08 01:43:50;;;;;;;11.23;10.18;;;15.30;99.90;;;;;;4980614;28;20097;-54
2022/09/08 01:46:16;;;;;;;11.68;10.57;;;15.30;99.90;;;;;;4983139;28;20483;-51
2022/09/08 01:48:41;;;;;;;12.88;11.57;;;15.30;99.90;;;;;;4985978;28;20498;-51
2022/09/08 01:51:08;;;;;;;13.45;11.32;;;15.30;99.90;;;;;;4982376;28;20026;-51
2022/09/08 01:53:34;;;;;;;11.48;10.48;;;15.20;99.90;;;;;;4987343;28;20360;-50
2022/09/08 01:56:00;;;;;;;12.38;11.10;;;15.30;99.90;;;;;;4981648;28;20034;-50
2022/09/08 01:58:26;;;;;;;10.85;9.70;;;15.20;99.90;;;;;;4991854;28;20398;-50
2022/09/08 02:00:51;;;;;;;13.38;12.18;;;15.10;99.90;;;;;;4984000;28;20026;-53
2022/09/08 02:03:17;;;;;;;13.05;11.63;;;15.20;99.90;;;;;;4984364;28;20022;-51
2022/09/08 02:05:44;;;;;;;12.35;11.25;;;15.10;99.90;;;;;;4986127;28;20019;-54
2022/09/08 02:08:10;;;;;;;13.82;12.50;;;15.10;99.90;;;;;;4984548;28;20036;-50
2022/09/08 02:10:36;;;;;;;13.23;11.93;;;15.10;99.90;;;;;;4989711;28;20033;-51
2022/09/08 02:13:03;;;;;;;14.27;12.88;;;15.10;99.90;;;;;;4984438;28;20019;-52
2022/09/08 02:15:30;;;;;;;12.68;11.38;;;15.10;99.90;;;;;;4991358;28;20101;-54
2022/09/08 02:17:57;;;;;;;12.15;10.75;;;15.10;99.90;;;;;;4981972;28;20019;-53
2022/09/08 02:20:23;;;;;;;12.93;11.68;;;15.10;99.90;;;;;;4984405;28;20027;-52
2022/09/08 02:22:49;;;;;;;14.07;11.88;;;15.10;99.90;;;;;;4985185;28;20078;-52
2022/09/08 02:25:14;;;;;;;11.80;10.23;;;15.10;99.90;;;;;;4976083;28;20447;-51
2022/09/08 02:27:40;;;;;;;12.55;11.07;;;15.10;99.90;;;;;;4972739;28;20042;-51
2022/09/08 02:30:07;;;;;;;12.18;10.98;;;15.10;99.90;;;;;;4985428;28;20033;-53
2022/09/08 02:32:37;;;;;;;11.27;10.20;;;15.00;99.90;;;;;;4983768;28;20076;-51
2022/09/08 02:35:03;;;;;;;11.77;10.63;;;15.00;99.90;;;;;;4984094;28;20105;-55
2022/09/08 02:37:28;;;;;;;10.95;9.77;;;14.90;99.90;;;;;;4984652;28;20380;-51
2022/09/08 02:39:54;;;;;;;11.18;10.00;;;15.00;99.90;;;;;;4987161;28;20422;-50
2022/09/08 02:42:19;;;;;;;9.88;8.98;;;15.00;99.90;;;;;;4985434;28;20660;-53
2022/09/08 02:44:45;;;;;;;10.90;9.73;;;14.90;99.90;;;;;;4981197;28;20106;-52
2022/09/08 02:47:10;;;;;;;11.05;9.95;;;14.80;99.90;;;;;;4984392;28;20042;-51
2022/09/08 02:49:36;;;;;;;10.68;9.57;;;14.80;99.90;;;;;;4982429;28;20084;-54
2022/09/08 02:52:02;;;;;;;13.30;9.98;;;14.80;99.90;;;;;;4985036;28;20026;-53
2022/09/08 02:54:28;;;;;;;10.25;9.13;;;14.80;99.90;;;;;;4984965;28;20023;-51
2022/09/08 02:56:54;;;;;;;10.93;9.23;;;14.80;99.90;;;;;;4987240;28;20035;-51
2022/09/08 02:59:19;;;;;;;11.45;9.35;;;14.70;99.90;;;;;;4985453;28;20019;-50
2022/09/08 03:01:46;;;;;;;10.38;9.10;;;14.70;99.90;;;;;;4979604;28;20458;-53
2022/09/08 03:04:11;;;;;;;9.77;8.77;;;14.70;99.90;;;;;;4985778;28;20019;-53
2022/09/08 03:06:37;;;;;;;9.52;8.63;;;14.70;99.90;;;;;;4982078;28;20391;-55
2022/09/08 03:09:04;;;;;;;9.43;8.40;;;14.70;99.90;;;;;;4985160;28;20027;-54
2022/09/08 03:11:31;;;;;;;11.40;9.23;;;14.70;99.90;;;;;;4984023;28;20030;-50
2022/09/08 03:13:56;;;;;;;9.30;8.10;;;14.70;99.90;;;;;;4986510;28;20019;-54
2022/09/08 03:16:22;;;;;;;9.02;7.85;;;14.70;99.90;;;;;;4984896;28;20173;-51
2022/09/08 03:18:48;;;;;;;7.93;7.22;;;14.70;99.90;;;;;;4980418;28;20493;-53
2022/09/08 03:21:14;;;;;;;8.55;7.75;;;14.70;99.90;;;;;;4984017;28;20498;-52
2022/09/08 03:23:40;;;;;;;8.82;7.28;;;14.70;99.90;;;;;;4982643;28;20046;-52
2022/09/08 03:26:10;;;;;;;8.50;7.13;;;14.70;99.90;;;;;;4980962;28;20109;-50
2022/09/08 03:28:35;;;;;;;8.20;7.45;;;14.70;99.90;;;;;;4976741;28;20363;-51
2022/09/08 03:31:05;;;;;;;8.27;6.97;;;14.70;99.90;;;;;;4984719;28;20030;-54
2022/09/08 03:33:31;;;;;;;7.80;7.10;;;14.60;99.90;;;;;;4965274;28;20435;-52
2022/09/08 03:36:00;;;;;;;7.93;7.20;;;14.60;99.90;;;;;;4985945;28;20106;-51
2022/09/08 03:38:26;;;;;;;13.93;7.97;;;14.60;99.90;;;;;;4983157;28;20018;-54
2022/09/08 03:40:52;;;;;;;8.38;6.70;;;14.60;99.90;;;;;;4986807;28;20109;-51
2022/09/08 03:43:18;;;;;;;7.50;6.85;;;14.60;99.90;;;;;;4979089;28;20111;-55
2022/09/08 03:45:44;;;;;;;7.40;6.68;;;14.60;99.90;;;;;;4983809;28;20050;-51
2022/09/08 03:48:11;;;;;;;7.13;6.53;;;14.60;99.90;;;;;;4983294;28;20116;-51
2022/09/08 03:50:36;;;;;;;7.20;6.45;;;14.60;99.90;;;;;;4983576;28;20026;-53
2022/09/08 03:53:02;;;;;;;7.03;6.32;;;14.50;99.90;;;;;;4985807;28;20490;-53
2022/09/08 03:55:27;;;;;;;6.93;6.28;;;14.50;99.90;;;;;;4983258;28;20601;-50
2022/09/08 03:57:53;;;;;;;7.03;6.18;;;14.50;99.90;;;;;;4986838;28;20022;-51
2022/09/08 04:00:19;;;;;;;7.40;6.70;;;14.50;99.90;;;;;;4980591;28;20392;-53
2022/09/08 04:02:45;;;;;;;7.88;7.15;;;14.50;99.90;;;;;;4984202;28;20027;-53
2022/09/08 04:05:10;;;;;;;9.00;6.38;;;14.50;99.90;;;;;;4983028;28;20505;-50
2022/09/08 04:07:38;;;;;;;8.23;7.40;;;14.50;99.90;;;;;;4983410;28;20027;-50
2022/09/08 04:10:05;;;;;;;8.50;7.40;;;14.40;99.90;;;;;;4986224;28;20031;-51
2022/09/08 04:12:31;;;;;;;8.73;7.03;;;14.40;99.90;;;;;;4983232;28;20019;-51
2022/09/08 04:14:57;;;;;;;9.50;7.45;;;14.40;99.90;;;;;;4986441;28;20471;-51
2022/09/08 04:17:23;;;;;;;7.68;6.80;;;14.30;99.90;;;;;;4979782;28;20027;-54
2022/09/08 04:19:50;;;;;;;7.63;6.88;;;14.30;99.90;;;;;;4985938;28;20034;-51
2022/09/08 04:22:18;;;;;;;7.70;6.97;;;14.30;99.90;;;;;;4979636;28;20022;-51
2022/09/08 04:24:45;;;;;;;8.18;6.60;;;14.20;99.90;;;;;;4988176;28;20049;-53
2022/09/08 04:27:11;;;;;;;7.63;6.50;;;14.20;99.90;;;;;;4973358;28;20038;-53
2022/09/08 04:29:38;;;;;;;7.30;6.57;;;14.20;99.90;;;;;;4987295;28;20069;-52
2022/09/08 04:32:03;;;;;;;7.18;6.43;;;14.20;99.90;;;;;;4984433;28;20376;-50
2022/09/08 04:34:29;;;;;;;7.57;6.78;;;14.20;99.90;;;;;;4990283;28;20029;-53
2022/09/08 04:36:55;;;;;;;6.30;5.70;;;14.20;99.90;;;;;;4983095;28;20019;-51
2022/09/08 04:39:21;;;;;;;7.28;6.00;;;14.20;99.90;;;;;;4992438;28;20076;-51
2022/09/08 04:41:47;;;;;;;7.05;6.35;;;14.20;99.90;;;;;;4983644;28;20023;-51
2022/09/08 04:44:12;;;;;;;9.10;6.15;;;14.20;99.90;;;;;;4983578;28;20026;-50
2022/09/08 04:46:38;;;;;;;6.65;5.95;;;14.20;99.90;;;;;;4987390;28;20033;-51
2022/09/08 04:49:05;;;;;;;7.50;6.07;;;14.20;99.90;;;;;;4984527;28;20019;-50
2022/09/08 04:51:31;;;;;;;7.28;6.22;;;14.20;99.90;;;;;;4989567;28;20101;-51
2022/09/08 04:53:58;;;;;;;7.40;6.30;;;14.20;99.90;;;;;;4982950;28;20023;-53
2022/09/08 04:56:25;;;;;;;6.53;5.82;;;14.30;99.90;;;;;;4992113;28;20026;-50
2022/09/08 04:58:51;;;;;;;6.35;5.57;;;14.30;99.90;;;;;;4984059;28;20078;-53
2022/09/08 05:01:19;;;;;;;8.32;5.90;;;14.20;99.90;;;;;;4983370;28;20370;-55
2022/09/08 05:03:46;;;;;;;7.57;6.00;;;14.30;99.90;;;;;;4986366;28;20027;-51
2022/09/08 05:06:15;;;;;;;6.47;5.68;;;14.20;99.90;;;;;;4985367;28;20023;-53
2022/09/08 05:08:43;;;;;;;7.50;5.65;;;14.20;99.90;;;;;;4988545;28;20026;-52
2022/09/08 05:11:09;;;;;;;7.05;6.38;;;14.20;99.90;;;;;;4985479;28;20559;-57
2022/09/08 05:13:35;;;;;;;7.28;5.65;;;14.20;99.90;;;;;;4990933;28;20037;-55
2022/09/08 05:16:06;;;;;;;6.05;5.35;;;14.20;99.90;;;;;;4985791;28;20491;-57
2022/09/08 05:18:31;;;;;;;6.10;5.50;;;14.20;99.90;;;;;;4985032;28;20101;-51
2022/09/08 05:20:57;;;;;;;6.45;5.03;;;14.30;99.90;;;;;;4985845;28;20513;-55
2022/09/08 05:23:23;;;;;;;6.07;5.22;;;14.30;99.90;;;;;;4985281;28;20441;-51
2022/09/08 05:25:56;;;;;;;5.93;5.32;;;14.30;99.90;;;;;;4987044;28;20038;-56
2022/09/08 05:28:23;;;;;;;6.35;5.72;;;14.30;99.90;;;;;;4976062;28;20065;-53
2022/09/08 05:30:49;;;;;;;6.82;6.22;;;14.20;99.90;;;;;;4986392;28;20483;-55
2022/09/08 05:33:14;;;;;;;5.72;5.20;;;14.30;99.90;;;;;;4981964;28;20018;-51
2022/09/08 05:35:40;;;;;;;7.32;5.43;;;14.30;99.90;;;;;;4988286;28;20022;-53
2022/09/08 05:38:05;;;;;;;7.05;5.65;;;14.30;99.90;;;;;;4984971;28;20025;-53
2022/09/08 05:40:34;;;;;;;7.47;5.50;;;14.30;99.90;;;;;;4988996;28;20482;-53
2022/09/08 05:42:59;;;;;;;6.18;5.25;;;14.30;99.90;;;;;;4984942;28;20098;-53
2022/09/08 05:45:25;;;;;;;7.63;5.43;;;14.30;99.90;;;;;;4983290;28;20109;-51
2022/09/08 05:47:50;;;;;;;6.18;4.78;;;14.40;99.90;;;;;;4987580;28;20026;-50
2022/09/08 05:50:16;;;;;;;6.20;5.60;;;14.40;99.90;;;;;;4983562;28;20121;-53
2022/09/08 05:52:42;;;;;;;5.60;5.03;;;14.40;99.90;;;;;;4987670;28;20036;-51
2022/09/08 05:55:08;;;;;;;7.00;6.10;;;14.50;99.90;;;;;;4984831;28;20027;-55
2022/09/08 05:57:34;;;;;;;5.53;5.03;;;14.50;99.90;;;;;;4988788;28;20022;-51
2022/09/08 06:00:00;;;;;;;7.93;4.70;;;14.50;99.90;;;;;;4985056;28;20408;-55
2022/09/08 06:02:26;;;;;;;6.40;5.18;;;14.60;99.90;;;;;;4982840;28;20072;-52
2022/09/08 06:04:51;;;;;;;5.63;5.10;;;14.60;99.90;;;;;;4987177;28;20470;-55
2022/09/08 06:07:17;;;;;;;5.82;5.20;;;14.60;99.90;;;;;;4981811;28;20022;-54
2022/09/08 06:09:43;;;;;;;6.78;5.80;;;14.70;99.90;;;;;;4987736;28;20035;-54
2022/09/08 06:12:08;;;;;;;7.65;5.13;;;14.70;99.90;;;;;;4984294;28;20034;-55
2022/09/08 06:14:34;;;;;;;7.53;4.95;;;14.70;99.90;;;;;;4988222;28;20098;-52
2022/09/08 06:16:59;;;;;;;9.50;5.10;;;14.80;99.90;;;;;;4984800;28;20038;-52
2022/09/08 06:19:25;;;;;;;4.75;4.35;;;14.80;99.90;;;;;;4982804;28;20025;-51
2022/09/08 06:21:50;;;;;;;8.60;4.43;;;14.80;99.90;;;;;;4986340;28;20018;-52
2022/09/08 06:24:16;;;;;;;5.05;4.55;;;14.90;99.90;;;;;;4983278;28;20090;-51
2022/09/08 06:26:42;;;;;;;5.47;4.95;;;14.90;99.90;;;;;;4973506;28;20097;-50
2022/09/08 06:29:13;;;;;;;4.53;4.07;;;14.90;99.90;;;;;;5020661;23;20119;-45
2022/09/08 06:31:48;;;;;;;5.07;4.35;;;14.90;99.90;;;;;;5005540;28;20350;-45
2022/09/08 06:34:19;;;;;;;5.88;4.63;;;14.90;99.90;;;;;;4996073;28;20024;-47
2022/09/08 06:36:55;;;;;;;6.57;5.47;;;14.90;99.90;;;;;;5006764;28;20022;-46
2022/09/08 06:39:25;;;;;;;7.72;4.70;;;15.00;99.90;;;;;;4996155;28;20344;-46
2022/09/08 06:42:09;;;;;;;4.78;4.28;;;15.00;99.90;;;;;;5006779;28;20232;-46
2022/09/08 06:44:39;;;;;;;4.80;4.30;;;15.00;99.90;;;;;;4999460;28;20019;-45
2022/09/08 06:47:13;;;;;;;5.43;4.43;;;15.10;99.90;;;;;;5000123;28;20494;-46
2022/09/08 06:49:39;;;;;;;4.80;4.28;;;15.10;99.90;;;;;;5005947;28;20038;-47
2022/09/08 06:52:19;;;;;;;7.80;4.78;;;15.10;99.90;;;;;;4998526;28;20374;-47
2022/09/08 06:54:50;;;;;;;5.13;4.55;;;15.10;99.90;;;;;;4997491;28;20025;-47
2022/09/08 06:57:53;;;;;;;5.70;4.00;;;15.20;99.90;;;;;;4999175;28;20104;-46
2022/09/08 07:00:22;;;;;;;4.68;4.15;;;15.20;99.90;;;;;;5000404;28;20025;-47
2022/09/08 07:03:03;;;;;;;4.88;3.85;;;15.20;99.90;;;;;;4995963;28;20490;-46
2022/09/08 07:06:03;;;;;;;4.38;3.97;;;15.20;99.90;;;;;;5000881;28;20033;-46
2022/09/08 07:09:01;;;;;;;5.38;4.60;;;15.20;99.90;;;;;;4997020;28;20080;-46
2022/09/08 07:11:52;;;;;;;4.30;3.90;;;15.20;99.90;;;;;;4997125;28;20098;-46
2022/09/08 07:14:41;;;;;;;7.05;4.28;;;15.30;99.90;;;;;;4998107;28;20097;-46
2022/09/08 07:17:39;;;;;;;6.32;3.65;;;15.30;99.90;;;;;;5000704;28;20030;-46
2022/09/08 07:20:09;;;;;;;5.72;3.80;;;15.30;99.90;;;;;;4995577;28;20046;-46
2022/09/08 07:23:05;;;;;;;4.88;3.60;;;15.30;99.90;;;;;;5007753;28;20026;-49
2022/09/08 07:25:54;;;;;;;4.63;3.75;;;15.40;99.90;;;;;;4997303;28;20025;-47
2022/09/08 07:28:23;;;;;;;5.95;3.35;;;15.40;99.90;;;;;;4998197;28;20057;-46
2022/09/08 07:31:05;;;;;;;5.25;3.85;;;15.40;99.90;;;;;;4998528;28;20101;-47
2022/09/08 07:33:36;;;;;;;6.18;4.13;;;15.50;99.90;;;;;;4998257;28;20042;-46
2022/09/08 07:36:11;;;;;;;4.35;3.85;;;15.50;99.90;;;;;;4999734;28;20036;-50
2022/09/08 07:38:47;;;;;;;4.15;3.75;;;15.50;99.90;;;;;;4995747;28;20018;-46
2022/09/08 07:41:44;;;;;;;4.25;3.85;;;15.60;99.90;;;;;;5009623;28;20022;-46
2022/09/08 07:44:17;;;;;;;5.75;3.67;;;15.60;99.90;;;;;;4998471;28;20499;-46
2022/09/08 07:47:21;;;;;;;7.28;4.22;;;15.70;99.90;;;;;;4999435;28;20116;-45
2022/09/08 07:50:08;;;;;;;5.82;4.00;;;15.70;99.90;;;;;;5003998;28;20166;-46
2022/09/08 07:52:33;;;;;;;3.65;3.30;;;15.80;99.90;;;;;;4997553;28;20170;-46
2022/09/08 07:55:26;;;;;;;3.83;3.10;;;15.80;99.90;;;;;;5001141;28;20546;-51
2022/09/08 07:58:25;;;;;;;4.90;3.45;;;15.80;99.90;;;;;;5009308;28;20447;-46
2022/09/08 08:01:11;;;;;;;6.32;3.40;;;15.90;99.90;;;;;;5009819;28;20029;-45
2022/09/08 08:03:46;;;;;;;3.60;2.97;;;15.90;99.90;;;;;;5001165;28;20033;-47
2022/09/08 08:06:18;;;;;;;4.85;3.50;;;15.90;99.90;;;;;;5002189;28;20022;-46
2022/09/08 08:08:59;;;;;;;6.07;3.33;;;15.90;99.90;;;;;;5012107;28;20018;-45
2022/09/08 08:11:44;;;;;;;4.07;3.10;;;15.90;99.90;;;;;;5000098;28;20033;-50
2022/09/08 08:14:40;;;;;;;3.15;2.85;;;15.90;99.90;;;;;;5009880;28;20383;-47
2022/09/08 08:17:40;;;;;;;4.63;3.47;;;15.90;99.90;;;;;;5003669;28;20029;-50
2022/09/08 08:20:39;;;;;;;4.55;3.08;;;16.00;99.90;;;;;;4999261;28;20035;-49
2022/09/08 08:23:27;;;;;;;3.50;3.20;;;16.00;99.90;;;;;;5009779;28;20048;-49
2022/09/08 08:26:01;;;;;;;4.18;3.22;;;16.00;99.90;;;;;;5003011;28;20312;-49
2022/09/08 08:28:35;;;;;;;3.28;2.78;;;16.00;99.90;;;;;;5001758;28;20031;-47
2022/09/08 08:31:24;;;;;;;4.15;2.70;;;16.10;99.90;;;;;;5002785;28;20077;-47
2022/09/08 08:33:56;;;;;;;3.47;3.00;;;16.10;99.90;;;;;;4998464;28;20026;-48
2022/09/08 08:36:26;;;;;;;4.40;3.55;;;16.10;99.90;;;;;;5011122;28;20022;-47
2022/09/08 08:39:14;;;;;;;4.93;2.65;;;16.10;99.90;;;;;;4997249;28;20044;-48
2022/09/08 08:41:46;;;;;;;4.47;2.72;;;16.10;99.90;;;;;;5004178;28;20021;-46
2022/09/08 08:44:34;;;;;;;3.83;2.42;;;16.10;99.90;;;;;;5001806;28;20069;-47
2022/09/08 08:47:38;;;;;;;2.72;2.40;;;16.10;99.90;;;;;;5009070;28;20156;-46
2022/09/08 08:50:41;;;;;;;3.60;2.72;;;16.10;99.90;;;;;;5000692;28;20034;-46
2022/09/08 08:53:22;;;;;;;4.63;2.53;;;16.10;99.90;;;;;;4990313;28;20073;-47
2022/09/08 08:55:58;;;;;;;3.85;2.75;;;16.00;99.90;;;;;;4997245;28;20077;-46
2022/09/08 08:58:30;;;;;;;;;;;16.00;99.90;;;;;;4999688;28;20017;-48
2022/09/08 09:01:14;;;;;;;3.05;2.40;;;16.00;99.90;;;;;;5003380;28;19909;-45
2022/09/08 09:04:12;;;;;;;3.92;2.53;;;16.00;99.90;;;;;;5001980;28;20046;-47
2022/09/08 09:07:04;;;;;;;3.63;2.30;;;16.00;99.90;;;;;;4998703;28;20070;-47
2022/09/08 09:09:55;;;;;;;3.55;2.42;;;16.00;99.90;;;;;;5000670;28;20073;-46
2022/09/08 09:12:58;;;;;;;3.95;2.90;;;16.00;99.90;;;;;;4994768;28;20535;-45
2022/09/08 09:15:44;;;;;;;4.68;2.47;;;16.00;99.90;;;;;;5000278;28;20025;-47
2022/09/08 09:18:32;;;;;;;6.43;3.17;;;16.00;99.90;;;;;;4989371;28;20041;-48
2022/09/08 09:21:26;;;;;;;9.38;2.40;;;16.00;99.90;;;;;;5001432;28;20494;-46
2022/09/08 09:24:02;;;;;;;5.90;2.55;;;16.00;99.90;;;;;;5001939;28;20030;-47
2022/09/08 09:26:35;;;;;;;2.95;2.47;;;16.00;99.90;;;;;;5005958;28;20021;-48
2022/09/08 09:29:35;;;;;;;2.40;2.20;;;16.10;99.90;;;;;;4997891;28;20072;-50
2022/09/08 09:32:29;;;;;;;3.67;2.40;;;16.10;99.90;;;;;;4997788;28;20119;-46
2022/09/08 09:35:16;;;;;;;3.55;2.50;;;16.10;99.90;;;;;;5001706;28;20077;-51
2022/09/08 09:37:56;;;;;;;4.53;2.88;;;16.20;99.90;;;;;;5000133;28;20026;-46
2022/09/08 09:40:37;;;;;;;6.57;2.63;;;16.30;99.90;;;;;;5000343;28;20347;-49
2022/09/08 09:43:22;;;;;;;4.03;2.13;;;16.30;99.90;;;;;;5001702;28;20033;-45
2022/09/08 09:46:06;;;;;;;3.92;2.47;;;16.40;99.90;;;;;;5003720;28;20516;-46
2022/09/08 09:49:02;;;;;;;5.03;2.90;;;16.40;99.90;;;;;;5002486;28;20032;-46
2022/09/08 09:51:43;;;;;;;4.70;2.40;;;16.50;99.90;;;;;;4998353;28;20104;-47
2022/09/08 09:54:21;;;;;;;2.72;2.10;;;16.60;99.90;;;;;;4999634;28;20030;-49
2022/09/08 09:57:07;;;;;;;4.15;2.42;;;16.70;99.90;;;;;;5000275;28;20025;-46
2022/09/08 09:59:41;;;;;;;;;;;16.80;99.90;;;;;;5000623;28;20015;-46
2022/09/08 10:02:42;;;;;;;3.05;2.40;;;16.90;99.90;;;;;;5000436;28;20028;-46
2022/09/08 10:05:40;;;;;;;4.72;2.38;;;17.00;99.90;;;;;;5002649;28;20539;-46
2022/09/08 10:08:43;;;;;;;3.35;2.63;;;17.10;99.90;;;;;;4996311;28;20121;-48
2022/09/08 10:11:26;;;;;;;4.03;2.63;;;17.20;99.90;;;;;;5006164;28;20036;-54
2022/09/08 10:14:22;;;;;;;4.03;2.78;;;17.30;99.90;;;;;;4999941;28;20026;-47
2022/09/08 10:17:10;;;;;;;3.63;2.43;;;17.40;99.90;;;;;;4999301;28;20394;-46
2022/09/08 10:19:54;;;;;;;4.10;2.80;;;17.40;99.90;;;;;;4999735;28;20253;-48
2022/09/08 10:22:38;;;;;;;3.28;2.92;;;17.50;99.90;;;;;;4998499;28;20044;-50
2022/09/08 10:25:27;;;;;;;5.30;3.05;;;17.50;99.90;;;;;;4996226;28;20411;-50
2022/09/08 10:28:24;;;;;;;5.78;3.20;;;17.50;99.90;;;;;;5001572;28;20091;-45
2022/09/08 10:31:10;;;;;;;3.13;2.83;;;17.50;99.90;;;;;;4999365;28;20117;-45
2022/09/08 10:34:07;;;;;;;4.40;2.70;;;17.60;99.90;;;;;;4999365;28;20478;-45
2022/09/08 10:37:10;;;;;;;5.10;3.00;;;17.60;99.90;;;;;;5001187;28;20033;-45
2022/09/08 10:39:52;;;;;;;3.97;3.42;;;17.60;99.90;;;;;;5004743;28;20018;-45
2022/09/08 10:42:44;;;;;;;3.83;3.10;;;17.60;99.90;;;;;;4998896;28;20019;-49
2022/09/08 10:45:23;;;;;;;7.80;3.97;;;17.60;99.90;;;;;;4999840;28;20026;-50
2022/09/08 10:47:49;;;;;;;3.40;3.10;;;17.60;99.90;;;;;;4998779;28;20079;-46
2022/09/08 10:50:19;;;;;;;6.75;3.80;;;17.60;99.90;;;;;;5000152;28;20490;-46
2022/09/08 10:53:22;;;;;;;6.18;3.40;;;17.60;99.90;;;;;;4998802;28;20022;-49
2022/09/08 10:56:01;;;;;;;3.38;3.08;;;17.60;99.90;;;;;;4998802;28;20057;-48
2022/09/08 10:58:50;;;;;;;3.53;3.10;;;17.50;99.90;;;;;;4998784;28;20097;-46
2022/09/08 11:01:36;;;;;;;4.57;3.50;;;17.50;99.90;;;;;;4998582;28;20019;-48
2022/09/08 11:04:26;;;;;;;4.05;3.35;;;17.40;99.90;;;;;;5007103;28;20430;-50
2022/09/08 11:07:04;;;;;;;5.20;3.20;;;17.40;99.90;;;;;;4999967;28;20026;-46
2022/09/08 11:10:01;;;;;;;3.58;3.08;;;17.30;99.90;;;;;;4998211;28;20030;-50
2022/09/08 11:12:46;;;;;;;4.82;3.03;;;17.30;99.90;;;;;;4996962;28;20014;-48
2022/09/08 11:15:20;;;;;;;7.40;3.30;;;17.20;99.90;;;;;;5001092;28;20026;-48
2022/09/08 11:17:49;;;;;;;5.15;3.55;;;17.20;99.90;;;;;;5000308;28;20072;-50
2022/09/08 11:20:24;;;;;;;4.60;3.38;;;17.10;99.90;;;;;;4995739;28;20022;-46
2022/09/08 11:23:26;;;;;;;7.00;3.42;;;17.00;99.90;;;;;;5000691;28;20026;-49
2022/09/08 11:26:11;;;;;;;6.88;4.22;;;16.80;99.90;;;;;;4999732;28;20037;-49
2022/09/08 11:29:03;;;;;;;11.30;5.85;;;16.60;99.90;;;;;;4996637;28;20064;-47
2022/09/08 11:32:01;;;;;;;5.57;4.25;;;16.40;99.90;;;;;;5006606;28;20114;-49
2022/09/08 11:34:41;;;;;;;6.63;4.53;;;16.30;99.90;;;;;;4996939;28;20027;-49
2022/09/08 11:37:16;;;;;;;4.57;4.18;;;16.20;99.90;;;;;;4999350;28;20552;-53
2022/09/08 11:40:06;;;;;;;9.52;4.65;;;16.10;99.90;;;;;;4998065;28;20029;-49
2022/09/08 11:43:12;;;;;;;7.80;4.60;;;16.00;99.90;;;;;;4997969;28;20049;-52
2022/09/08 11:46:05;;;;;;;9.05;4.53;;;15.90;99.90;;;;;;4996894;28;20121;-49
2022/09/08 11:48:43;;;;;;;5.32;4.07;;;15.90;99.90;;;;;;5000259;28;20113;-51
2022/09/08 11:51:19;;;;;;;6.85;4.55;;;15.90;99.90;;;;;;4994374;28;20025;-50
2022/09/08 11:54:02;;;;;;;8.52;4.82;;;15.90;99.90;;;;;;5001426;28;20210;-51
2022/09/08 11:57:02;;;;;;;7.68;5.38;;;15.90;99.90;;;;;;4995740;28;20093;-54
2022/09/08 12:00:15;;;;;;;7.97;5.45;;;15.90;99.90;;;;;;4968111;28;20404;-50
2022/09/08 12:03:16;;;;;;;7.38;4.97;;;15.90;99.90;;;;;;4976068;28;20019;-53
2022/09/08 12:06:00;;;;;;;6.35;4.72;;;15.90;99.90;;;;;;5003603;28;20037;-52
2022/09/08 12:08:46;;;;;;;7.22;4.90;;;15.90;99.90;;;;;;5003034;28;20038;-54
2022/09/08 12:11:25;;;;;;;7.72;5.10;;;15.90;99.90;;;;;;4998363;28;20086;-54
2022/09/08 12:14:24;;;;;;;6.82;5.38;;;15.80;99.90;;;;;;4998579;28;20022;-50
2022/09/08 12:17:10;;;;;;;8.90;4.95;;;15.90;99.90;;;;;;5004932;28;20025;-52
2022/09/08 12:19:56;;;;;;;5.73;5.23;;;15.80;99.90;;;;;;4997907;28;20026;-53
2022/09/08 12:22:43;;;;;;;6.47;5.70;;;15.80;99.90;;;;;;4997119;28;20260;-53
2022/09/08 12:25:41;;;;;;;6.10;5.50;;;15.80;99.90;;;;;;4992921;28;20022;-52
2022/09/08 12:28:37;;;;;;;8.18;5.40;;;15.70;99.90;;;;;;5024548;23;20034;-50
2022/09/08 12:31:33;;;;;;;5.65;4.68;;;15.80;99.90;;;;;;4979696;28;20591;-52
2022/09/08 12:34:40;;;;;;;6.20;5.05;;;15.70;99.90;;;;;;4975221;28;20030;-52
2022/09/08 12:37:10;;;;;;;8.47;5.60;;;15.80;99.90;;;;;;4964288;28;20125;-51
2022/09/08 12:40:07;;;;;;;10.85;6.00;;;15.70;99.90;;;;;;4964777;28;20277;-53
2022/09/08 12:42:41;;;;;;;5.78;5.15;;;15.60;99.90;;;;;;4962410;28;20483;-52
2022/09/08 12:45:37;;;;;;;6.15;5.57;;;15.60;99.90;;;;;;4964565;28;20031;-51
2022/09/08 12:48:33;;;;;;;6.07;5.20;;;15.60;99.90;;;;;;4955027;28;20031;-54
2022/09/08 12:51:28;;;;;;;5.82;5.32;;;15.60;99.90;;;;;;4944737;28;20090;-52
2022/09/08 12:54:12;;;;;;;6.10;5.30;;;15.60;99.90;;;;;;4970190;28;20023;-51
2022/09/08 12:57:15;;;;;;;8.55;5.63;;;15.50;99.90;;;;;;4961485;28;20422;-50
2022/09/08 13:00:06;;;;;;;8.00;5.95;;;15.50;99.90;;;;;;4962544;28;20078;-54
2022/09/08 13:02:46;;;;;;;8.48;5.55;;;15.50;99.90;;;;;;4962047;28;20114;-52
2022/09/08 13:05:18;;;;;;;7.55;6.30;;;15.50;99.90;;;;;;4965077;28;20027;-51
2022/09/08 13:08:05;;;;;;;5.82;5.32;;;15.60;99.90;;;;;;4959832;28;20023;-50
2022/09/08 13:10:41;;;;;;;8.60;5.93;;;15.60;99.90;;;;;;4963416;28;20033;-50
2022/09/08 13:13:41;;;;;;;7.15;6.10;;;15.50;99.90;;;;;;4957871;28;20392;-51
2022/09/08 13:16:06;;;;;;;5.85;5.30;;;15.40;99.90;;;;;;4970079;28;20027;-51
2022/09/08 13:19:02;;;;;;;6.63;5.90;;;15.40;99.90;;;;;;4962245;28;20569;-51
2022/09/08 13:21:40;;;;;;;7.15;6.22;;;15.40;99.90;;;;;;4973141;28;20019;-49
2022/09/08 13:24:15;;;;;;;7.68;6.05;;;15.40;99.90;;;;;;4973456;28;20435;-51
2022/09/08 13:26:45;;;;;;;6.57;5.97;;;15.40;99.90;;;;;;4965283;28;20023;-49
2022/09/08 13:29:20;;;;;;;7.97;7.18;;;15.40;99.90;;;;;;4955071;28;20034;-49
2022/09/08 13:32:10;;;;;;;6.70;5.93;;;15.40;99.90;;;;;;4965550;28;20472;-51
2022/09/08 13:34:55;;;;;;;7.18;6.50;;;15.30;99.90;;;;;;4968027;28;20094;-49